Chunchula, AL (36521)

11:53 AM CDT on July 27, 2016 (GMT -0500)
APRSWXNET | | Change Station

Elev 269 ft 30.98 °N, 88.12 °W | Updated 45 minutes ago

Mostly Cloudy
Mostly Cloudy
77 °F
Feels Like 78 °F
N
1
Wind Variable Wind from SW
Gusts 0.0 mph

Today
High -- | Low -- °F
--% Chance of Precip.
Yesterday
High -- | Low -- °F
Precip. -- in
Pressure 30.08 in
Visibility 7.0 miles
Clouds Scattered Clouds 2500 ft
Mostly Cloudy 3400 ft
Mostly Cloudy 12000 ft
Heat Index 78 °F
Dew Point 74 °F
Humidity 91%
Rainfall in
Snow Depth Not available.
6:06 AM 7:50 PM
Last Quarter, 41% visible
METAR KMOB 271556Z 26005KT 7SM SCT025CB BKN034 BKN120 27/23 A3009 RMK AO2 RAB34E49 SLP184 CB NE MOV NE P0000 T02670228
Pressure 30.08 in
Visibility 7.0 miles
Clouds Scattered Clouds 2500 ft
Mostly Cloudy 3400 ft
Mostly Cloudy 12000 ft
Heat Index 78 °F
Dew Point 74 °F
Humidity 91%
Rainfall in
Snow Depth Not available.
6:06 AM 7:50 PM
Last Quarter, 41% visible
METAR KMOB 271556Z 26005KT 7SM SCT025CB BKN034 BKN120 27/23 A3009 RMK AO2 RAB34E49 SLP184 CB NE MOV NE P0000 T02670228

10-Day Weather Forecast

Almanac

Astronomy

Jul. 27, 2016 Rise Set
Actual Time
Civil Twilight
Nautical Twilight
Astronomical Twilight
Moon
Length of Visible Light
Length of Day
Tomorrow will be .
, % of the Moon is Illuminated

Today's Extremes

State Highs State Lows

Community

WunderPhotos

Upload Photos

1,927,880 photos uploaded!

WunderBlog® & News

Nearby

Air Quality

  Air Quality AQ Index Pollutant
Not available.

Snow Depth

Station Depth Elevation

Earthquake Activity

City Distance Mag. Time & Date
Minimum magnitude displayed is 2.5.

Coastal Water Temperatures

Place Temperature

Stations

Nearby Weather Stations

Station Location Temp. Windchill Dew Point Humidity Wind Precip. Elev Updated Type
                   

Watches & Warnings

There are currently no watches in effect.